sensor_id;sensor_type;location;lat;lon;timestamp;P1;durP1;ratioP1;P2;durP2;ratioP2
48552;SDS011;34335;51.566;6.994;2022-09-29T00:01:39;4.47;;;2.53;;
48552;SDS011;34335;51.566;6.994;2022-09-29T00:04:05;3.23;;;2.03;;
48552;SDS011;34335;51.566;6.994;2022-09-29T00:06:30;4.13;;;2.15;;
48552;SDS011;34335;51.566;6.994;2022-09-29T00:08:56;4.18;;;2.55;;
48552;SDS011;34335;51.566;6.994;2022-09-29T00:11:22;4.43;;;2.28;;
48552;SDS011;34335;51.566;6.994;2022-09-29T00:13:47;5.95;;;2.55;;
48552;SDS011;34335;51.566;6.994;2022-09-29T00:16:13;6.63;;;2.55;;
48552;SDS011;34335;51.566;6.994;2022-09-29T00:18:38;3.13;;;1.70;;
48552;SDS011;34335;51.566;6.994;2022-09-29T00:21:12;6.00;;;2.35;;
48552;SDS011;34335;51.566;6.994;2022-09-29T00:23:40;5.38;;;2.45;;
48552;SDS011;34335;51.566;6.994;2022-09-29T00:26:07;4.38;;;2.40;;
48552;SDS011;34335;51.566;6.994;2022-09-29T00:28:36;4.93;;;2.38;;
48552;SDS011;34335;51.566;6.994;2022-09-29T00:31:03;2.90;;;1.55;;
48552;SDS011;34335;51.566;6.994;2022-09-29T00:33:31;3.30;;;2.13;;
48552;SDS011;34335;51.566;6.994;2022-09-29T00:35:58;5.43;;;2.30;;
48552;SDS011;34335;51.566;6.994;2022-09-29T00:38:25;4.95;;;2.38;;
48552;SDS011;34335;51.566;6.994;2022-09-29T00:40:52;5.28;;;2.03;;
48552;SDS011;34335;51.566;6.994;2022-09-29T00:43:19;4.95;;;3.05;;
48552;SDS011;34335;51.566;6.994;2022-09-29T00:45:47;5.25;;;1.90;;
48552;SDS011;34335;51.566;6.994;2022-09-29T00:48:15;3.28;;;1.90;;
48552;SDS011;34335;51.566;6.994;2022-09-29T00:50:44;4.32;;;2.13;;
48552;SDS011;34335;51.566;6.994;2022-09-29T00:53:14;5.15;;;2.55;;
48552;SDS011;34335;51.566;6.994;2022-09-29T00:55:42;2.90;;;1.55;;
48552;SDS011;34335;51.566;6.994;2022-09-29T00:58:15;4.05;;;2.00;;
48552;SDS011;34335;51.566;6.994;2022-09-29T01:00:47;3.85;;;1.98;;
48552;SDS011;34335;51.566;6.994;2022-09-29T01:03:13;3.97;;;2.13;;
48552;SDS011;34335;51.566;6.994;2022-09-29T01:05:49;10.02;;;3.17;;
48552;SDS011;34335;51.566;6.994;2022-09-29T01:08:22;6.10;;;2.50;;
48552;SDS011;34335;51.566;6.994;2022-09-29T01:10:51;5.90;;;2.65;;
48552;SDS011;34335;51.566;6.994;2022-09-29T01:13:17;4.50;;;2.03;;
48552;SDS011;34335;51.566;6.994;2022-09-29T01:15:43;4.03;;;1.75;;
48552;SDS011;34335;51.566;6.994;2022-09-29T01:18:09;4.47;;;1.77;;
48552;SDS011;34335;51.566;6.994;2022-09-29T01:20:37;4.78;;;2.05;;
48552;SDS011;34335;51.566;6.994;2022-09-29T01:31:55;4.68;;;2.13;;
48552;SDS011;34335;51.566;6.994;2022-09-29T01:39:34;6.43;;;3.00;;
48552;SDS011;34335;51.566;6.994;2022-09-29T01:44:35;7.40;;;3.40;;
48552;SDS011;34335;51.566;6.994;2022-09-29T01:47:07;5.50;;;2.78;;
48552;SDS011;34335;51.566;6.994;2022-09-29T01:49:37;3.92;;;2.88;;
48552;SDS011;34335;51.566;6.994;2022-09-29T01:54:50;5.75;;;2.45;;
48552;SDS011;34335;51.566;6.994;2022-09-29T01:57:25;5.57;;;2.10;;
48552;SDS011;34335;51.566;6.994;2022-09-29T02:00:04;4.78;;;2.40;;
48552;SDS011;34335;51.566;6.994;2022-09-29T02:02:36;5.55;;;2.53;;
48552;SDS011;34335;51.566;6.994;2022-09-29T02:05:10;3.95;;;2.20;;
48552;SDS011;34335;51.566;6.994;2022-09-29T02:07:43;3.28;;;2.03;;
48552;SDS011;34335;51.566;6.994;2022-09-29T02:10:11;5.18;;;1.88;;
48552;SDS011;34335;51.566;6.994;2022-09-29T02:12:43;4.95;;;2.58;;
48552;SDS011;34335;51.566;6.994;2022-09-29T02:15:11;3.80;;;1.88;;
48552;SDS011;34335;51.566;6.994;2022-09-29T02:17:42;5.68;;;2.45;;
48552;SDS011;34335;51.566;6.994;2022-09-29T02:20:10;3.08;;;1.55;;
48552;SDS011;34335;51.566;6.994;2022-09-29T02:22:36;4.60;;;2.17;;
48552;SDS011;34335;51.566;6.994;2022-09-29T02:25:03;3.90;;;1.73;;
48552;SDS011;34335;51.566;6.994;2022-09-29T02:27:29;3.03;;;1.60;;
48552;SDS011;34335;51.566;6.994;2022-09-29T02:29:57;6.25;;;2.50;;
48552;SDS011;34335;51.566;6.994;2022-09-29T02:32:23;9.77;;;2.45;;
48552;SDS011;34335;51.566;6.994;2022-09-29T02:34:49;6.82;;;1.88;;
48552;SDS011;34335;51.566;6.994;2022-09-29T02:42:50;4.75;;;2.47;;
48552;SDS011;34335;51.566;6.994;2022-09-29T02:51:17;6.68;;;2.08;;
48552;SDS011;34335;51.566;6.994;2022-09-29T02:59:44;7.35;;;1.95;;
48552;SDS011;34335;51.566;6.994;2022-09-29T03:02:23;3.97;;;2.28;;
48552;SDS011;34335;51.566;6.994;2022-09-29T03:04:49;4.18;;;1.88;;
48552;SDS011;34335;51.566;6.994;2022-09-29T03:07:15;5.05;;;2.28;;
48552;SDS011;34335;51.566;6.994;2022-09-29T03:09:40;5.47;;;2.33;;
48552;SDS011;34335;51.566;6.994;2022-09-29T03:12:05;4.43;;;2.00;;
48552;SDS011;34335;51.566;6.994;2022-09-29T03:14:30;5.30;;;2.22;;
48552;SDS011;34335;51.566;6.994;2022-09-29T03:16:56;4.13;;;1.58;;
48552;SDS011;34335;51.566;6.994;2022-09-29T03:19:21;3.80;;;2.30;;
48552;SDS011;34335;51.566;6.994;2022-09-29T03:21:46;3.78;;;2.17;;
48552;SDS011;34335;51.566;6.994;2022-09-29T03:24:12;6.40;;;2.47;;
48552;SDS011;34335;51.566;6.994;2022-09-29T03:26:37;6.40;;;2.47;;
48552;SDS011;34335;51.566;6.994;2022-09-29T03:29:02;5.23;;;3.00;;
48552;SDS011;34335;51.566;6.994;2022-09-29T03:31:27;5.50;;;2.20;;
48552;SDS011;34335;51.566;6.994;2022-09-29T03:33:53;5.97;;;2.60;;
48552;SDS011;34335;51.566;6.994;2022-09-29T03:36:18;8.70;;;2.60;;
48552;SDS011;34335;51.566;6.994;2022-09-29T03:38:43;5.20;;;2.85;;
48552;SDS011;34335;51.566;6.994;2022-09-29T03:41:11;5.82;;;2.38;;
48552;SDS011;34335;51.566;6.994;2022-09-29T03:43:36;5.00;;;2.17;;
48552;SDS011;34335;51.566;6.994;2022-09-29T03:46:01;5.15;;;2.55;;
48552;SDS011;34335;51.566;6.994;2022-09-29T03:48:29;5.03;;;2.50;;
48552;SDS011;34335;51.566;6.994;2022-09-29T03:50:55;4.95;;;2.20;;
48552;SDS011;34335;51.566;6.994;2022-09-29T03:53:21;5.03;;;2.13;;
48552;SDS011;34335;51.566;6.994;2022-09-29T03:55:47;3.08;;;2.03;;
48552;SDS011;34335;51.566;6.994;2022-09-29T03:58:13;4.22;;;2.20;;
48552;SDS011;34335;51.566;6.994;2022-09-29T04:00:39;4.78;;;1.90;;
48552;SDS011;34335;51.566;6.994;2022-09-29T04:03:05;4.20;;;2.47;;
48552;SDS011;34335;51.566;6.994;2022-09-29T04:05:31;10.65;;;2.60;;
48552;SDS011;34335;51.566;6.994;2022-09-29T04:07:56;4.13;;;2.08;;
48552;SDS011;34335;51.566;6.994;2022-09-29T04:10:22;8.10;;;2.80;;
48552;SDS011;34335;51.566;6.994;2022-09-29T04:12:47;5.28;;;2.67;;
48552;SDS011;34335;51.566;6.994;2022-09-29T04:15:12;4.75;;;2.25;;
48552;SDS011;34335;51.566;6.994;2022-09-29T04:17:37;7.22;;;2.45;;
48552;SDS011;34335;51.566;6.994;2022-09-29T04:20:03;7.47;;;2.97;;
48552;SDS011;34335;51.566;6.994;2022-09-29T04:22:28;6.38;;;2.70;;
48552;SDS011;34335;51.566;6.994;2022-09-29T04:24:53;5.30;;;2.00;;
48552;SDS011;34335;51.566;6.994;2022-09-29T04:27:20;5.03;;;2.30;;
48552;SDS011;34335;51.566;6.994;2022-09-29T04:29:45;4.65;;;2.13;;
48552;SDS011;34335;51.566;6.994;2022-09-29T04:32:10;3.70;;;2.10;;
48552;SDS011;34335;51.566;6.994;2022-09-29T04:34:36;4.43;;;2.13;;
48552;SDS011;34335;51.566;6.994;2022-09-29T04:37:01;4.88;;;2.47;;
48552;SDS011;34335;51.566;6.994;2022-09-29T04:39:27;6.13;;;2.33;;
48552;SDS011;34335;51.566;6.994;2022-09-29T04:41:52;4.45;;;2.10;;
48552;SDS011;34335;51.566;6.994;2022-09-29T04:44:18;3.80;;;2.00;;
48552;SDS011;34335;51.566;6.994;2022-09-29T04:46:49;4.20;;;2.13;;
48552;SDS011;34335;51.566;6.994;2022-09-29T04:49:15;4.30;;;1.77;;
48552;SDS011;34335;51.566;6.994;2022-09-29T04:51:40;4.72;;;2.00;;
48552;SDS011;34335;51.566;6.994;2022-09-29T04:54:06;2.85;;;1.80;;
48552;SDS011;34335;51.566;6.994;2022-09-29T04:56:31;4.47;;;2.45;;
48552;SDS011;34335;51.566;6.994;2022-09-29T04:58:57;9.05;;;2.63;;
48552;SDS011;34335;51.566;6.994;2022-09-29T05:01:22;11.25;;;2.42;;
48552;SDS011;34335;51.566;6.994;2022-09-29T05:03:49;4.25;;;2.22;;
48552;SDS011;34335;51.566;6.994;2022-09-29T05:06:14;8.77;;;3.03;;
48552;SDS011;34335;51.566;6.994;2022-09-29T05:08:40;8.27;;;3.72;;
48552;SDS011;34335;51.566;6.994;2022-09-29T05:11:05;5.13;;;2.70;;
48552;SDS011;34335;51.566;6.994;2022-09-29T05:13:32;5.50;;;2.47;;
48552;SDS011;34335;51.566;6.994;2022-09-29T05:15:57;6.38;;;2.20;;
48552;SDS011;34335;51.566;6.994;2022-09-29T05:18:23;4.22;;;2.53;;
48552;SDS011;34335;51.566;6.994;2022-09-29T05:20:49;3.40;;;2.17;;
48552;SDS011;34335;51.566;6.994;2022-09-29T05:23:15;5.47;;;2.88;;
48552;SDS011;34335;51.566;6.994;2022-09-29T05:25:40;3.75;;;2.25;;
48552;SDS011;34335;51.566;6.994;2022-09-29T05:28:05;5.65;;;2.38;;
48552;SDS011;34335;51.566;6.994;2022-09-29T05:30:31;3.40;;;2.00;;
48552;SDS011;34335;51.566;6.994;2022-09-29T05:32:56;4.38;;;2.58;;
48552;SDS011;34335;51.566;6.994;2022-09-29T05:35:21;5.22;;;2.70;;
48552;SDS011;34335;51.566;6.994;2022-09-29T05:37:47;3.85;;;1.73;;
48552;SDS011;34335;51.566;6.994;2022-09-29T05:40:12;2.85;;;1.55;;
48552;SDS011;34335;51.566;6.994;2022-09-29T05:42:37;4.15;;;2.00;;
48552;SDS011;34335;51.566;6.994;2022-09-29T05:45:04;6.68;;;3.13;;
48552;SDS011;34335;51.566;6.994;2022-09-29T05:47:32;7.68;;;1.70;;
48552;SDS011;34335;51.566;6.994;2022-09-29T05:49:57;4.57;;;2.47;;
48552;SDS011;34335;51.566;6.994;2022-09-29T05:52:22;4.80;;;2.58;;
48552;SDS011;34335;51.566;6.994;2022-09-29T05:54:48;5.32;;;2.55;;
48552;SDS011;34335;51.566;6.994;2022-09-29T05:57:15;3.70;;;2.17;;
48552;SDS011;34335;51.566;6.994;2022-09-29T05:59:40;3.80;;;2.42;;
48552;SDS011;34335;51.566;6.994;2022-09-29T06:02:05;6.07;;;2.80;;
48552;SDS011;34335;51.566;6.994;2022-09-29T06:04:31;5.68;;;2.22;;
48552;SDS011;34335;51.566;6.994;2022-09-29T06:06:57;6.72;;;3.13;;
48552;SDS011;34335;51.566;6.994;2022-09-29T06:09:22;6.07;;;3.00;;
48552;SDS011;34335;51.566;6.994;2022-09-29T06:11:48;4.72;;;2.55;;
48552;SDS011;34335;51.566;6.994;2022-09-29T06:14:13;8.13;;;2.65;;
48552;SDS011;34335;51.566;6.994;2022-09-29T06:16:38;5.03;;;2.75;;
48552;SDS011;34335;51.566;6.994;2022-09-29T06:19:05;4.40;;;2.63;;
48552;SDS011;34335;51.566;6.994;2022-09-29T06:21:31;5.40;;;2.85;;
48552;SDS011;34335;51.566;6.994;2022-09-29T06:23:58;5.75;;;2.30;;
48552;SDS011;34335;51.566;6.994;2022-09-29T06:26:24;6.60;;;2.80;;
48552;SDS011;34335;51.566;6.994;2022-09-29T06:28:51;5.25;;;2.58;;
48552;SDS011;34335;51.566;6.994;2022-09-29T06:31:18;5.78;;;2.83;;
48552;SDS011;34335;51.566;6.994;2022-09-29T06:33:45;4.75;;;2.42;;
48552;SDS011;34335;51.566;6.994;2022-09-29T06:36:22;4.53;;;2.50;;
48552;SDS011;34335;51.566;6.994;2022-09-29T06:39:09;6.30;;;2.25;;
48552;SDS011;34335;51.566;6.994;2022-09-29T06:41:36;6.65;;;3.22;;
48552;SDS011;34335;51.566;6.994;2022-09-29T06:44:02;3.60;;;1.83;;
48552;SDS011;34335;51.566;6.994;2022-09-29T06:46:27;6.28;;;2.70;;
48552;SDS011;34335;51.566;6.994;2022-09-29T06:48:53;4.65;;;2.20;;
48552;SDS011;34335;51.566;6.994;2022-09-29T06:51:19;6.50;;;2.80;;
48552;SDS011;34335;51.566;6.994;2022-09-29T06:53:46;6.85;;;3.40;;
48552;SDS011;34335;51.566;6.994;2022-09-29T06:56:12;7.80;;;3.22;;
48552;SDS011;34335;51.566;6.994;2022-09-29T06:58:38;7.28;;;3.03;;
48552;SDS011;34335;51.566;6.994;2022-09-29T07:01:04;5.60;;;3.35;;
48552;SDS011;34335;51.566;6.994;2022-09-29T07:03:30;5.88;;;2.70;;
48552;SDS011;34335;51.566;6.994;2022-09-29T07:05:55;8.85;;;3.80;;
48552;SDS011;34335;51.566;6.994;2022-09-29T07:08:21;6.35;;;2.95;;
48552;SDS011;34335;51.566;6.994;2022-09-29T07:10:46;11.25;;;4.10;;
48552;SDS011;34335;51.566;6.994;2022-09-29T07:13:12;4.82;;;2.38;;
48552;SDS011;34335;51.566;6.994;2022-09-29T07:15:37;11.82;;;3.03;;
48552;SDS011;34335;51.566;6.994;2022-09-29T07:18:03;7.27;;;3.20;;
48552;SDS011;34335;51.566;6.994;2022-09-29T07:20:29;5.30;;;3.25;;
48552;SDS011;34335;51.566;6.994;2022-09-29T07:22:55;5.97;;;3.35;;
48552;SDS011;34335;51.566;6.994;2022-09-29T07:25:21;6.47;;;2.70;;
48552;SDS011;34335;51.566;6.994;2022-09-29T07:27:47;5.65;;;3.30;;
48552;SDS011;34335;51.566;6.994;2022-09-29T07:30:13;8.30;;;3.40;;
48552;SDS011;34335;51.566;6.994;2022-09-29T07:32:39;8.65;;;3.75;;
48552;SDS011;34335;51.566;6.994;2022-09-29T07:35:04;5.13;;;2.70;;
48552;SDS011;34335;51.566;6.994;2022-09-29T07:37:31;3.92;;;2.30;;
48552;SDS011;34335;51.566;6.994;2022-09-29T07:39:56;5.07;;;2.75;;
48552;SDS011;34335;51.566;6.994;2022-09-29T07:42:22;8.13;;;3.65;;
48552;SDS011;34335;51.566;6.994;2022-09-29T07:44:47;6.83;;;3.07;;
48552;SDS011;34335;51.566;6.994;2022-09-29T07:47:12;10.38;;;4.60;;
48552;SDS011;34335;51.566;6.994;2022-09-29T07:49:39;6.57;;;3.00;;
48552;SDS011;34335;51.566;6.994;2022-09-29T07:52:05;8.70;;;3.35;;
48552;SDS011;34335;51.566;6.994;2022-09-29T07:54:30;7.70;;;3.78;;
48552;SDS011;34335;51.566;6.994;2022-09-29T07:56:56;6.72;;;2.97;;
48552;SDS011;34335;51.566;6.994;2022-09-29T07:59:21;6.32;;;2.65;;
48552;SDS011;34335;51.566;6.994;2022-09-29T08:01:47;7.93;;;3.65;;
48552;SDS011;34335;51.566;6.994;2022-09-29T08:04:12;8.40;;;4.20;;
48552;SDS011;34335;51.566;6.994;2022-09-29T08:06:37;6.95;;;3.28;;
48552;SDS011;34335;51.566;6.994;2022-09-29T08:09:04;6.82;;;3.83;;
48552;SDS011;34335;51.566;6.994;2022-09-29T08:11:29;6.37;;;3.00;;
48552;SDS011;34335;51.566;6.994;2022-09-29T08:13:56;11.00;;;3.92;;
48552;SDS011;34335;51.566;6.994;2022-09-29T08:16:21;11.67;;;4.60;;
48552;SDS011;34335;51.566;6.994;2022-09-29T08:18:47;6.30;;;3.17;;
48552;SDS011;34335;51.566;6.994;2022-09-29T08:21:12;12.60;;;4.75;;
48552;SDS011;34335;51.566;6.994;2022-09-29T08:23:40;8.50;;;3.65;;
48552;SDS011;34335;51.566;6.994;2022-09-29T08:26:10;8.18;;;4.28;;
48552;SDS011;34335;51.566;6.994;2022-09-29T08:28:38;7.05;;;3.45;;
48552;SDS011;34335;51.566;6.994;2022-09-29T08:31:04;7.10;;;3.30;;
48552;SDS011;34335;51.566;6.994;2022-09-29T08:33:32;11.10;;;4.45;;
48552;SDS011;34335;51.566;6.994;2022-09-29T08:35:57;9.93;;;4.72;;
48552;SDS011;34335;51.566;6.994;2022-09-29T08:38:24;8.57;;;4.13;;
48552;SDS011;34335;51.566;6.994;2022-09-29T08:40:50;6.30;;;3.67;;
48552;SDS011;34335;51.566;6.994;2022-09-29T08:43:20;6.05;;;2.92;;
48552;SDS011;34335;51.566;6.994;2022-09-29T08:45:56;5.93;;;3.15;;
48552;SDS011;34335;51.566;6.994;2022-09-29T08:48:26;6.40;;;3.47;;
48552;SDS011;34335;51.566;6.994;2022-09-29T08:51:01;5.60;;;3.28;;
48552;SDS011;34335;51.566;6.994;2022-09-29T08:53:31;9.85;;;3.63;;
48552;SDS011;34335;51.566;6.994;2022-09-29T08:56:02;9.13;;;3.72;;
48552;SDS011;34335;51.566;6.994;2022-09-29T08:58:29;8.27;;;4.00;;
48552;SDS011;34335;51.566;6.994;2022-09-29T09:06:09;6.53;;;3.42;;
48552;SDS011;34335;51.566;6.994;2022-09-29T09:14:12;7.35;;;3.25;;
48552;SDS011;34335;51.566;6.994;2022-09-29T09:16:53;9.43;;;3.28;;
48552;SDS011;34335;51.566;6.994;2022-09-29T09:27:45;5.65;;;2.83;;
48552;SDS011;34335;51.566;6.994;2022-09-29T09:30:25;5.22;;;2.50;;
48552;SDS011;34335;51.566;6.994;2022-09-29T09:32:55;6.38;;;3.25;;
48552;SDS011;34335;51.566;6.994;2022-09-29T09:35:34;6.22;;;3.13;;
48552;SDS011;34335;51.566;6.994;2022-09-29T09:38:09;3.72;;;2.05;;
48552;SDS011;34335;51.566;6.994;2022-09-29T09:40:39;5.22;;;2.25;;
48552;SDS011;34335;51.566;6.994;2022-09-29T09:43:10;3.58;;;2.42;;
48552;SDS011;34335;51.566;6.994;2022-09-29T09:45:50;10.27;;;2.88;;
48552;SDS011;34335;51.566;6.994;2022-09-29T09:48:25;4.57;;;2.20;;
48552;SDS011;34335;51.566;6.994;2022-09-29T09:50:56;8.25;;;2.45;;
48552;SDS011;34335;51.566;6.994;2022-09-29T09:53:30;4.20;;;1.90;;
48552;SDS011;34335;51.566;6.994;2022-09-29T10:01:25;3.63;;;2.35;;
48552;SDS011;34335;51.566;6.994;2022-09-29T10:03:51;3.40;;;1.63;;
48552;SDS011;34335;51.566;6.994;2022-09-29T10:06:16;2.25;;;1.20;;
48552;SDS011;34335;51.566;6.994;2022-09-29T10:08:42;3.65;;;1.80;;
48552;SDS011;34335;51.566;6.994;2022-09-29T10:11:24;3.78;;;1.95;;
48552;SDS011;34335;51.566;6.994;2022-09-29T10:13:56;2.80;;;1.50;;
48552;SDS011;34335;51.566;6.994;2022-09-29T10:16:25;3.75;;;2.15;;
48552;SDS011;34335;51.566;6.994;2022-09-29T10:18:57;4.43;;;2.10;;
48552;SDS011;34335;51.566;6.994;2022-09-29T10:21:39;3.25;;;1.88;;
48552;SDS011;34335;51.566;6.994;2022-09-29T10:24:39;2.75;;;1.55;;
48552;SDS011;34335;51.566;6.994;2022-09-29T10:26:58;3.53;;;1.90;;
48552;SDS011;34335;51.566;6.994;2022-09-29T10:34:41;3.60;;;1.90;;
48552;SDS011;34335;51.566;6.994;2022-09-29T10:37:18;8.32;;;1.70;;
48552;SDS011;34335;51.566;6.994;2022-09-29T10:39:50;3.40;;;1.63;;
48552;SDS011;34335;51.566;6.994;2022-09-29T10:47:38;2.70;;;1.23;;
48552;SDS011;34335;51.566;6.994;2022-09-29T10:52:32;2.05;;;1.05;;
48552;SDS011;34335;51.566;6.994;2022-09-29T10:54:58;3.20;;;1.65;;
48552;SDS011;34335;51.566;6.994;2022-09-29T10:57:28;1.90;;;1.00;;
48552;SDS011;34335;51.566;6.994;2022-09-29T10:59:55;2.47;;;1.23;;
48552;SDS011;34335;51.566;6.994;2022-09-29T11:05:03;1.73;;;1.00;;
48552;SDS011;34335;51.566;6.994;2022-09-29T11:07:43;1.90;;;1.10;;
48552;SDS011;34335;51.566;6.994;2022-09-29T11:13:14;1.80;;;1.20;;
48552;SDS011;34335;51.566;6.994;2022-09-29T11:15:51;4.50;;;1.02;;
48552;SDS011;34335;51.566;6.994;2022-09-29T11:18:18;2.15;;;1.27;;
48552;SDS011;34335;51.566;6.994;2022-09-29T11:20:46;3.45;;;1.08;;
48552;SDS011;34335;51.566;6.994;2022-09-29T11:26:18;2.10;;;0.98;;
48552;SDS011;34335;51.566;6.994;2022-09-29T11:28:55;2.63;;;1.40;;
48552;SDS011;34335;51.566;6.994;2022-09-29T11:31:37;2.78;;;1.48;;
48552;SDS011;34335;51.566;6.994;2022-09-29T11:45:10;2.00;;;1.00;;
48552;SDS011;34335;51.566;6.994;2022-09-29T12:02:17;5.68;;;2.80;;
48552;SDS011;34335;51.566;6.994;2022-09-29T12:14:59;9.23;;;2.63;;
48552;SDS011;34335;51.566;6.994;2022-09-29T12:18:16;3.88;;;2.22;;
48552;SDS011;34335;51.566;6.994;2022-09-29T12:28:42;5.82;;;3.00;;
48552;SDS011;34335;51.566;6.994;2022-09-29T12:41:38;3.80;;;2.33;;
48552;SDS011;34335;51.566;6.994;2022-09-29T12:44:13;4.63;;;2.20;;
48552;SDS011;34335;51.566;6.994;2022-09-29T12:47:12;5.28;;;2.53;;
48552;SDS011;34335;51.566;6.994;2022-09-29T12:49:54;4.05;;;2.17;;
48552;SDS011;34335;51.566;6.994;2022-09-29T12:52:36;6.65;;;2.47;;
48552;SDS011;34335;51.566;6.994;2022-09-29T12:57:44;3.40;;;2.25;;
48552;SDS011;34335;51.566;6.994;2022-09-29T13:00:15;5.20;;;1.90;;
48552;SDS011;34335;51.566;6.994;2022-09-29T13:08:32;4.07;;;1.45;;
48552;SDS011;34335;51.566;6.994;2022-09-29T13:31:07;3.50;;;1.73;;
48552;SDS011;34335;51.566;6.994;2022-09-29T13:33:37;4.68;;;1.63;;
48552;SDS011;34335;51.566;6.994;2022-09-29T13:36:04;3.08;;;1.15;;
48552;SDS011;34335;51.566;6.994;2022-09-29T13:38:31;4.22;;;1.35;;
48552;SDS011;34335;51.566;6.994;2022-09-29T13:41:11;1.42;;;0.98;;
48552;SDS011;34335;51.566;6.994;2022-09-29T13:46:36;1.95;;;1.10;;
48552;SDS011;34335;51.566;6.994;2022-09-29T14:00:32;2.33;;;1.20;;
48552;SDS011;34335;51.566;6.994;2022-09-29T14:02:41;2.92;;;1.30;;
48552;SDS011;34335;51.566;6.994;2022-09-29T14:07:47;1.73;;;1.13;;
48552;SDS011;34335;51.566;6.994;2022-09-29T14:16:00;2.28;;;0.95;;
48552;SDS011;34335;51.566;6.994;2022-09-29T14:18:32;2.30;;;1.30;;
48552;SDS011;34335;51.566;6.994;2022-09-29T14:21:07;3.22;;;1.15;;
48552;SDS011;34335;51.566;6.994;2022-09-29T14:29:15;4.43;;;1.10;;
48552;SDS011;34335;51.566;6.994;2022-09-29T14:31:45;2.55;;;1.30;;
48552;SDS011;34335;51.566;6.994;2022-09-29T14:34:15;2.85;;;1.63;;
48552;SDS011;34335;51.566;6.994;2022-09-29T14:36:42;1.92;;;1.00;;
48552;SDS011;34335;51.566;6.994;2022-09-29T14:39:11;2.75;;;1.63;;
48552;SDS011;34335;51.566;6.994;2022-09-29T14:41:39;1.50;;;0.85;;
48552;SDS011;34335;51.566;6.994;2022-09-29T14:44:07;1.40;;;0.73;;
48552;SDS011;34335;51.566;6.994;2022-09-29T14:46:41;1.05;;;0.70;;
48552;SDS011;34335;51.566;6.994;2022-09-29T14:53:40;1.65;;;0.73;;
48552;SDS011;34335;51.566;6.994;2022-09-29T14:56:16;0.43;;;0.40;;
48552;SDS011;34335;51.566;6.994;2022-09-29T14:58:50;1.73;;;0.77;;
48552;SDS011;34335;51.566;6.994;2022-09-29T15:01:26;3.78;;;0.77;;
48552;SDS011;34335;51.566;6.994;2022-09-29T15:03:53;1.00;;;0.50;;
48552;SDS011;34335;51.566;6.994;2022-09-29T15:06:23;0.70;;;0.50;;
48552;SDS011;34335;51.566;6.994;2022-09-29T15:11:55;1.25;;;0.70;;
48552;SDS011;34335;51.566;6.994;2022-09-29T15:14:27;1.75;;;0.63;;
48552;SDS011;34335;51.566;6.994;2022-09-29T15:20:04;1.40;;;0.65;;
48552;SDS011;34335;51.566;6.994;2022-09-29T15:27:44;1.33;;;0.60;;
48552;SDS011;34335;51.566;6.994;2022-09-29T15:30:15;1.20;;;0.55;;
48552;SDS011;34335;51.566;6.994;2022-09-29T15:32:42;3.83;;;0.65;;
48552;SDS011;34335;51.566;6.994;2022-09-29T15:35:13;1.63;;;0.70;;
48552;SDS011;34335;51.566;6.994;2022-09-29T15:37:53;1.35;;;0.70;;
48552;SDS011;34335;51.566;6.994;2022-09-29T15:40:21;2.45;;;0.65;;
48552;SDS011;34335;51.566;6.994;2022-09-29T15:42:49;1.23;;;0.60;;
48552;SDS011;34335;51.566;6.994;2022-09-29T15:45:25;2.08;;;0.60;;
48552;SDS011;34335;51.566;6.994;2022-09-29T15:48:05;1.50;;;0.60;;
48552;SDS011;34335;51.566;6.994;2022-09-29T15:50:32;1.70;;;0.68;;
48552;SDS011;34335;51.566;6.994;2022-09-29T15:53:05;1.25;;;0.73;;
48552;SDS011;34335;51.566;6.994;2022-09-29T15:55:30;0.95;;;0.55;;
48552;SDS011;34335;51.566;6.994;2022-09-29T15:57:56;1.10;;;0.70;;
48552;SDS011;34335;51.566;6.994;2022-09-29T16:02:51;2.23;;;0.80;;
48552;SDS011;34335;51.566;6.994;2022-09-29T16:05:30;1.45;;;0.80;;
48552;SDS011;34335;51.566;6.994;2022-09-29T16:10:31;0.77;;;0.60;;
48552;SDS011;34335;51.566;6.994;2022-09-29T16:13:07;1.30;;;0.57;;
48552;SDS011;34335;51.566;6.994;2022-09-29T16:15:46;0.85;;;0.55;;
48552;SDS011;34335;51.566;6.994;2022-09-29T16:18:28;0.88;;;0.60;;
48552;SDS011;34335;51.566;6.994;2022-09-29T16:20:57;0.98;;;0.57;;
48552;SDS011;34335;51.566;6.994;2022-09-29T16:28:36;1.27;;;0.65;;
48552;SDS011;34335;51.566;6.994;2022-09-29T16:31:04;1.40;;;0.88;;
48552;SDS011;34335;51.566;6.994;2022-09-29T16:33:51;1.58;;;0.70;;
48552;SDS011;34335;51.566;6.994;2022-09-29T16:36:19;0.73;;;0.50;;
48552;SDS011;34335;51.566;6.994;2022-09-29T16:38:48;0.70;;;0.43;;
48552;SDS011;34335;51.566;6.994;2022-09-29T16:44:05;1.13;;;0.60;;
48552;SDS011;34335;51.566;6.994;2022-09-29T16:46:31;1.63;;;0.90;;
48552;SDS011;34335;51.566;6.994;2022-09-29T16:48:57;1.02;;;0.70;;
48552;SDS011;34335;51.566;6.994;2022-09-29T16:51:23;0.93;;;0.70;;
48552;SDS011;34335;51.566;6.994;2022-09-29T16:53:49;0.60;;;0.60;;
48552;SDS011;34335;51.566;6.994;2022-09-29T16:56:29;1.23;;;0.50;;
48552;SDS011;34335;51.566;6.994;2022-09-29T16:59:10;1.35;;;0.68;;
48552;SDS011;34335;51.566;6.994;2022-09-29T17:01:38;1.25;;;0.63;;
48552;SDS011;34335;51.566;6.994;2022-09-29T17:04:05;0.95;;;0.60;;
48552;SDS011;34335;51.566;6.994;2022-09-29T17:06:30;1.17;;;0.52;;
48552;SDS011;34335;51.566;6.994;2022-09-29T17:08:56;1.95;;;1.00;;
48552;SDS011;34335;51.566;6.994;2022-09-29T17:11:22;1.45;;;0.75;;
48552;SDS011;34335;51.566;6.994;2022-09-29T17:13:48;1.48;;;0.70;;
48552;SDS011;34335;51.566;6.994;2022-09-29T17:16:14;3.35;;;0.70;;
48552;SDS011;34335;51.566;6.994;2022-09-29T17:18:45;2.15;;;1.02;;
48552;SDS011;34335;51.566;6.994;2022-09-29T17:21:14;1.10;;;0.55;;
48552;SDS011;34335;51.566;6.994;2022-09-29T17:23:39;0.77;;;0.50;;
48552;SDS011;34335;51.566;6.994;2022-09-29T17:26:05;2.42;;;1.00;;
48552;SDS011;34335;51.566;6.994;2022-09-29T17:28:56;1.95;;;1.10;;
48552;SDS011;34335;51.566;6.994;2022-09-29T17:31:22;2.13;;;0.80;;
48552;SDS011;34335;51.566;6.994;2022-09-29T17:33:47;3.55;;;1.02;;
48552;SDS011;34335;51.566;6.994;2022-09-29T17:36:12;1.03;;;0.63;;
48552;SDS011;34335;51.566;6.994;2022-09-29T17:38:38;2.88;;;1.05;;
48552;SDS011;34335;51.566;6.994;2022-09-29T17:41:05;2.65;;;0.95;;
48552;SDS011;34335;51.566;6.994;2022-09-29T17:43:31;1.08;;;0.73;;
48552;SDS011;34335;51.566;6.994;2022-09-29T17:45:57;4.80;;;1.08;;
48552;SDS011;34335;51.566;6.994;2022-09-29T17:48:24;2.08;;;1.17;;
48552;SDS011;34335;51.566;6.994;2022-09-29T17:50:51;2.40;;;1.38;;
48552;SDS011;34335;51.566;6.994;2022-09-29T17:53:20;5.70;;;1.13;;
48552;SDS011;34335;51.566;6.994;2022-09-29T17:55:46;1.33;;;0.77;;
48552;SDS011;34335;51.566;6.994;2022-09-29T17:58:13;2.20;;;1.27;;
48552;SDS011;34335;51.566;6.994;2022-09-29T18:00:41;2.17;;;1.02;;
48552;SDS011;34335;51.566;6.994;2022-09-29T18:03:08;2.05;;;1.15;;
48552;SDS011;34335;51.566;6.994;2022-09-29T18:05:36;3.72;;;1.27;;
48552;SDS011;34335;51.566;6.994;2022-09-29T18:08:05;1.85;;;0.75;;
48552;SDS011;34335;51.566;6.994;2022-09-29T18:10:52;1.27;;;0.88;;
48552;SDS011;34335;51.566;6.994;2022-09-29T18:13:19;3.60;;;1.52;;
48552;SDS011;34335;51.566;6.994;2022-09-29T18:15:45;3.30;;;1.55;;
48552;SDS011;34335;51.566;6.994;2022-09-29T18:18:12;3.03;;;1.60;;
48552;SDS011;34335;51.566;6.994;2022-09-29T18:20:42;3.80;;;1.58;;
48552;SDS011;34335;51.566;6.994;2022-09-29T18:23:10;3.72;;;1.42;;
48552;SDS011;34335;51.566;6.994;2022-09-29T18:25:36;3.38;;;1.67;;
48552;SDS011;34335;51.566;6.994;2022-09-29T18:28:01;3.50;;;1.40;;
48552;SDS011;34335;51.566;6.994;2022-09-29T18:30:28;3.00;;;1.30;;
48552;SDS011;34335;51.566;6.994;2022-09-29T18:32:55;4.47;;;1.58;;
48552;SDS011;34335;51.566;6.994;2022-09-29T18:35:24;5.70;;;2.03;;
48552;SDS011;34335;51.566;6.994;2022-09-29T18:37:53;5.38;;;2.60;;
48552;SDS011;34335;51.566;6.994;2022-09-29T18:40:18;4.25;;;2.38;;